Share

Jordan Valley, OR

12:23 AM MDT on April 25, 2014 (GMT -0600)
Nampa (KMAN) Elev 2536 ft | 43.58 °N, 116.52 °W | Change Station

Current weather conditions updated 28 minutes ago

Mostly Cloudy
Mostly Cloudy
46 °F
Feels Like 45 °F
N
4
Wind Variable Wind from SE
Sunrise 6:54 AM
Sunset 8:44 PM
Moon Waning Crescent

Today is forecast to be nearly the same temperature as yesterday.

Pressure 29.84 in
Visibility 10.0 miles
Clouds Mostly Cloudy 9500 ft
Windchill 45 °F
Dew Point 46 °F
Humidity 100%
Rainfall 0.04 in
Snow Depth Not available.
UV 0 out of 16
Pollen 5.90 out of 12
Air Quality Not available.
Flu Activity Sporadic
METAR KMAN 250555Z AUTO 13003KT 10SM BKN095 08/08 A2984 RMK AO1

More Conditions Fewer Conditions

Pressure 29.84 in
Visibility 10.0 miles
Clouds Mostly Cloudy 9500 ft
Windchill 45 °F
Dew Point 46 °F
Humidity 100%
Rainfall 0.04 in
Snow Depth Not available.
UV 0 out of 16
Pollen 5.90 out of 12
Air Quality Not available.
Flu Activity Sporadic
METAR KMAN 250555Z AUTO 13003KT 10SM BKN095 08/08 A2984 RMK AO1

More Conditions Fewer Conditions

10-Day Weather Forecast

Almanac

Astronomy

Apr. 25, 2014 Rise Set
Actual Time 6:54 AM MDT 8:44 PM MDT
Civil Twilight 6:24 AM MDT 9:15 PM MDT
Nautical Twilight 5:47 AM MDT 9:52 PM MDT
Astronomical Twilight 5:08 AM MDT 10:32 PM MDT
Moon 4:50 AM MDT 5:07 PM MDT
Length of Visible Light 14h 50m
Length of Day
13h 50m
Tomorrow will be 2m 35s longer.
Waning Crescent, 19% of the Moon is Illuminated
Today
Waning Crescent
Apr 29
New
May 6
First Quarter
May 14
Full
May 21
Last Quarter

Today's Extremes

State Highs State Lows

Community

  • Deer in evening light
    Deer in evening light
  • Critter
    Critter
  • Jone Runs Falls
    Jone Runs Falls
  • Easter in Shenandoah National Park
    Easter in Shenandoah National Park
  • Sunset at Apalachicola Bay, Florida
    Sunset at Apalachicola Bay, Florida

WunderPhotos

Upload Photos

1,704,867 photos uploaded!

WunderBlogs® & News

Nearby

Snow Depth

Station Depth Elevation
Silvies 0 in 6900 ft
Lake Creek R.S. 0 in 5200 ft
Blue Mountain Spring 12 in 5900 ft
Snow Mountain 8 in 6220 ft
Starr Ridge 0 in 5300 ft

Coastal Water Temperatures

Place Temperature
No Stations Reporting

Earthquake Activity

City Distance Mag. Time & Date
Denio Junction, Nevada 68 miles 2.9 8:39 AM MDT
2014-04-20
Minimum magnitude displayed is 2.5.

Nearby Weather Stations

There are no personal weather stations in this area.

What do you think?

We're not finished. Please let us know what you like, what you don't like, and what you are still missing.